createdAt,value
2023-03-25T00:02:27.543Z,70.25
2023-03-25T00:05:29.620Z,70.58
2023-03-25T00:08:32.383Z,70.16
2023-03-25T00:11:34.423Z,70.21
2023-03-25T00:14:36.397Z,69.91
2023-03-25T00:17:38.799Z,70.22
2023-03-25T00:20:41.537Z,69.95
2023-03-25T00:23:43.477Z,69.74
2023-03-25T00:26:46.281Z,69.86
2023-03-25T00:29:48.349Z,69.27
2023-03-25T00:32:52.849Z,70.25
2023-03-25T00:35:59.449Z,69.75
2023-03-25T00:39:01.502Z,68.66
2023-03-25T00:42:03.669Z,69.65
2023-03-25T00:45:06.505Z,69.03
2023-03-25T00:48:08.484Z,69.56
2023-03-25T00:51:14.520Z,68.96
2023-03-25T00:54:17.132Z,68.73
2023-03-25T00:57:19.039Z,69.23
2023-03-25T01:00:21.042Z,69.32
2023-03-25T01:03:24.324Z,69.73
2023-03-25T01:06:29.111Z,70.34
2023-03-25T01:09:31.409Z,69.95
2023-03-25T01:12:34.199Z,69.32
2023-03-25T01:15:36.244Z,69.26
2023-03-25T01:18:38.910Z,69.50
2023-03-25T01:21:41.043Z,69.95
2023-03-25T01:24:43.274Z,69.26
2023-03-25T01:27:46.070Z,70.37
2023-03-25T01:30:48.172Z,70.26
2023-03-25T01:33:50.196Z,69.38
2023-03-25T01:36:56.015Z,69.62
2023-03-25T01:39:58.035Z,69.52
2023-03-25T01:43:00.104Z,70.08
2023-03-25T01:46:02.374Z,69.78
2023-03-25T01:49:07.427Z,70.42
2023-03-25T01:52:11.802Z,69.82
2023-03-25T01:55:14.219Z,70.50
2023-03-25T01:58:18.460Z,70.58
2023-03-25T02:01:22.523Z,71.20
2023-03-25T02:04:59.219Z,69.84
2023-03-25T02:08:03.502Z,70.35
2023-03-25T02:11:06.962Z,71.75
2023-03-25T02:14:11.218Z,71.26
2023-03-25T02:17:18.892Z,71.97
2023-03-25T02:20:23.864Z,72.27
2023-03-25T02:23:44.819Z,71.25
2023-03-25T02:26:56.559Z,71.51
2023-03-25T02:30:13.691Z,71.29
2023-03-25T02:33:27.817Z,71.44
2023-03-25T02:36:48.876Z,72.17
2023-03-25T02:39:55.001Z,71.64
2023-03-25T02:43:15.903Z,71.35
2023-03-25T02:46:18.724Z,72.73
2023-03-25T02:49:25.941Z,72.05
2023-03-25T02:52:29.940Z,72.68
2023-03-25T02:55:33.842Z,72.30
2023-03-25T02:58:36.158Z,72.85
2023-03-25T03:01:38.676Z,72.69
2023-03-25T03:04:50.778Z,72.93
2023-03-25T03:07:57.711Z,72.90
2023-03-25T03:11:10.945Z,72.91
2023-03-25T03:14:19.253Z,72.34
2023-03-25T03:17:22.413Z,73.38
2023-03-25T03:20:37.450Z,72.28
2023-03-25T03:23:42.156Z,71.92
2023-03-25T03:26:53.441Z,72.74
2023-03-25T03:30:04.591Z,72.75
2023-03-25T03:33:28.071Z,72.10
2023-03-25T03:36:32.430Z,71.80
2023-03-25T03:39:36.251Z,71.59
2023-03-25T03:42:41.891Z,71.74
2023-03-25T03:45:46.693Z,72.08
2023-03-25T03:48:52.548Z,73.57
2023-03-25T03:51:59.037Z,72.10
2023-03-25T03:55:03.153Z,72.69
2023-03-25T03:58:23.623Z,71.88
2023-03-25T04:01:28.162Z,72.63
2023-03-25T04:04:30.428Z,72.20
2023-03-25T04:07:57.149Z,72.92
2023-03-25T04:11:03.916Z,72.21
2023-03-25T04:14:07.639Z,71.34
2023-03-25T04:17:09.714Z,71.61
2023-03-25T04:20:15.772Z,74.90
2023-03-25T04:23:17.725Z,73.62
2023-03-25T04:26:20.071Z,78.47
2023-03-25T04:29:21.908Z,80.81
2023-03-25T04:32:24.406Z,89.99
2023-03-25T04:35:26.872Z,100.00
2023-03-25T04:38:29.781Z,100.00
2023-03-25T04:41:33.750Z,100.00
2023-03-25T04:44:39.398Z,100.00
2023-03-25T04:47:47.347Z,100.00
2023-03-25T04:50:51.885Z,100.00
2023-03-25T04:53:53.895Z,100.00
2023-03-25T04:56:56.558Z,100.00
2023-03-25T04:59:58.449Z,100.00
2023-03-25T05:03:02.104Z,100.00
2023-03-25T05:06:04.301Z,100.00
2023-03-25T05:09:07.234Z,100.00
2023-03-25T05:12:11.553Z,100.00
2023-03-25T05:15:14.218Z,100.00
2023-03-25T05:18:16.865Z,100.00
2023-03-25T05:21:18.858Z,99.43
2023-03-25T05:24:20.855Z,98.52
2023-03-25T05:27:22.818Z,98.46
2023-03-25T05:30:24.841Z,97.80
2023-03-25T05:33:27.256Z,97.05
2023-03-25T05:36:29.849Z,96.15
2023-03-25T05:39:31.696Z,94.15
2023-03-25T05:42:34.982Z,94.23
2023-03-25T05:45:38.224Z,93.65
2023-03-25T05:48:41.547Z,92.77
2023-03-25T05:51:45.332Z,91.36
2023-03-25T05:54:51.924Z,90.04
2023-03-25T05:57:54.129Z,89.50
2023-03-25T06:00:56.045Z,88.30
2023-03-25T06:04:01.157Z,87.00
2023-03-25T06:07:04.287Z,86.89
2023-03-25T06:10:06.515Z,86.05
2023-03-25T06:13:08.592Z,87.06
2023-03-25T06:16:10.682Z,85.85
2023-03-25T06:19:12.724Z,86.09
2023-03-25T06:22:15.012Z,85.22
2023-03-25T06:25:19.192Z,84.56
2023-03-25T06:28:21.328Z,84.48
2023-03-25T06:31:33.990Z,83.35
2023-03-25T06:34:36.461Z,82.92
2023-03-25T06:37:39.054Z,83.00
2023-03-25T06:40:47.941Z,81.41
2023-03-25T06:43:50.063Z,81.38
2023-03-25T06:47:10.334Z,80.52
2023-03-25T06:50:18.492Z,80.86
2023-03-25T06:53:20.603Z,79.58
2023-03-25T06:56:22.646Z,65.78
2023-03-25T06:59:25.103Z,62.89
2023-03-25T07:02:28.347Z,66.87
2023-03-25T07:05:30.404Z,70.58
2023-03-25T07:08:32.626Z,75.21
2023-03-25T07:11:35.128Z,76.39
2023-03-25T07:14:37.068Z,70.94
2023-03-25T07:17:39.305Z,65.22
2023-03-25T07:20:46.186Z,61.43
2023-03-25T07:23:48.963Z,62.27
2023-03-25T07:26:51.030Z,64.46
2023-03-25T07:29:56.054Z,65.97
2023-03-25T07:32:58.268Z,66.42
2023-03-25T07:36:00.384Z,67.13
2023-03-25T07:39:02.452Z,67.44
2023-03-25T07:42:05.667Z,69.05
2023-03-25T07:45:43.615Z,73.25
2023-03-25T07:48:46.999Z,75.89
2023-03-25T07:51:48.913Z,74.37
2023-03-25T07:54:51.064Z,74.51
2023-03-25T07:57:53.083Z,74.99
2023-03-25T08:00:56.743Z,75.40
2023-03-25T08:03:58.708Z,75.85
2023-03-25T08:07:01.026Z,76.02
2023-03-25T08:10:02.955Z,76.43
2023-03-25T08:13:06.979Z,75.70
2023-03-25T08:16:12.441Z,76.55
2023-03-25T08:19:14.635Z,75.78
2023-03-25T08:22:16.609Z,77.86
2023-03-25T08:25:18.930Z,75.43
2023-03-25T08:28:23.367Z,70.06
2023-03-25T08:31:26.781Z,68.81
2023-03-25T08:34:30.053Z,66.92
2023-03-25T08:37:35.460Z,66.75
2023-03-25T08:40:37.454Z,61.43
2023-03-25T08:43:39.486Z,56.95
2023-03-25T08:46:41.473Z,57.59
2023-03-25T08:49:43.519Z,56.79
2023-03-25T08:52:46.185Z,55.17
2023-03-25T08:55:51.473Z,53.99
2023-03-25T08:58:53.707Z,52.98
2023-03-25T09:01:57.205Z,52.18
2023-03-25T09:05:00.422Z,51.18
2023-03-25T09:08:02.420Z,51.67
2023-03-25T09:11:04.420Z,50.94
2023-03-25T09:14:06.430Z,50.56
2023-03-25T09:17:10.267Z,50.88
2023-03-25T09:20:12.605Z,50.44
2023-03-25T09:23:17.236Z,51.47
2023-03-25T09:26:19.714Z,51.95
2023-03-25T09:29:23.854Z,52.82
2023-03-25T09:32:25.963Z,50.41
2023-03-25T09:35:27.893Z,51.17
2023-03-25T09:38:29.897Z,51.28
2023-03-25T09:41:47.137Z,50.28
2023-03-25T09:45:11.483Z,50.92
2023-03-25T09:48:29.158Z,50.18
2023-03-25T09:55:03.129Z,51.13
2023-03-25T09:58:29.141Z,51.94
2023-03-25T10:01:37.780Z,52.01
2023-03-25T10:04:48.200Z,52.70
2023-03-25T10:08:01.205Z,53.84
2023-03-25T10:11:21.870Z,54.56
2023-03-25T10:14:37.578Z,56.79
2023-03-25T10:17:56.886Z,56.26
2023-03-25T10:21:01.683Z,58.23
2023-03-25T10:24:25.139Z,58.91
2023-03-25T10:27:53.872Z,60.58
2023-03-25T10:30:56.563Z,61.74
2023-03-25T10:34:01.624Z,63.16
2023-03-25T10:37:12.711Z,63.87
2023-03-25T10:40:27.280Z,62.97
2023-03-25T10:43:32.152Z,59.42
2023-03-25T10:46:49.679Z,56.55
2023-03-25T10:49:52.507Z,56.50
2023-03-25T10:54:14.208Z,56.04
2023-03-25T10:57:22.421Z,55.78
2023-03-25T11:00:26.544Z,55.52
2023-03-25T11:03:35.604Z,55.88
2023-03-25T11:06:46.048Z,56.02
2023-03-25T11:09:53.575Z,56.40
2023-03-25T11:12:58.676Z,56.44
2023-03-25T11:16:05.527Z,56.94
2023-03-25T11:19:25.592Z,57.09
2023-03-25T11:22:32.011Z,56.96
2023-03-25T11:25:42.061Z,57.14
2023-03-25T11:29:06.673Z,56.85
2023-03-25T11:32:22.986Z,56.38
2023-03-25T11:35:29.944Z,56.37
2023-03-25T11:38:36.774Z,55.81
2023-03-25T11:41:38.752Z,56.21
2023-03-25T11:44:41.416Z,55.40
2023-03-25T11:47:43.909Z,54.82
2023-03-25T11:50:57.290Z,55.09
2023-03-25T11:54:00.666Z,54.93
2023-03-25T11:57:10.195Z,54.86
2023-03-25T12:00:21.019Z,55.33
2023-03-25T12:03:26.836Z,55.33
2023-03-25T12:06:30.234Z,55.74
2023-03-25T12:09:32.249Z,55.49
2023-03-25T12:12:55.273Z,56.00
2023-03-25T12:16:03.279Z,56.00
2023-03-25T12:19:28.276Z,55.76
2023-03-25T12:22:45.857Z,55.73
2023-03-25T12:25:57.197Z,55.48
2023-03-25T12:28:59.074Z,55.62
2023-03-25T12:32:01.565Z,55.59
2023-03-25T12:35:14.516Z,55.61
2023-03-25T12:38:28.652Z,56.00
2023-03-25T12:41:49.008Z,55.94
2023-03-25T12:44:59.674Z,56.47
2023-03-25T12:48:07.647Z,56.41
2023-03-25T12:51:15.331Z,56.58
2023-03-25T12:54:29.175Z,56.95
2023-03-25T12:57:43.071Z,57.46
2023-03-25T13:00:45.022Z,58.43
2023-03-25T13:04:05.772Z,58.16
2023-03-25T13:07:12.139Z,59.29
2023-03-25T13:10:22.236Z,59.85
2023-03-25T13:13:26.149Z,59.40
2023-03-25T13:16:35.936Z,59.60
2023-03-25T13:19:41.342Z,60.05
2023-03-25T13:22:47.149Z,60.46
2023-03-25T13:25:49.157Z,60.20
2023-03-25T13:28:50.953Z,62.76
2023-03-25T13:31:54.065Z,63.69
2023-03-25T13:35:02.901Z,63.83
2023-03-25T13:38:10.651Z,62.19
2023-03-25T13:41:17.733Z,61.84
2023-03-25T13:44:27.564Z,62.70
2023-03-25T13:47:29.601Z,62.17
2023-03-25T13:50:32.738Z,61.13
2023-03-25T13:53:46.653Z,62.34
2023-03-25T13:57:13.814Z,62.10
2023-03-25T14:00:34.599Z,61.93
2023-03-25T14:04:09.411Z,62.49
2023-03-25T14:07:17.165Z,62.82
2023-03-25T14:10:28.407Z,63.05
2023-03-25T14:13:32.809Z,62.77
2023-03-25T14:16:44.293Z,63.97
2023-03-25T14:19:55.366Z,64.89
2023-03-25T14:22:59.470Z,64.93
2023-03-25T14:26:05.360Z,66.98
2023-03-25T14:29:21.516Z,69.30
2023-03-25T14:32:23.727Z,73.86
2023-03-25T14:35:35.138Z,76.33
2023-03-25T14:38:53.674Z,80.76
2023-03-25T14:42:02.570Z,83.14
2023-03-25T14:45:26.869Z,85.72
2023-03-25T14:48:30.789Z,87.39
2023-03-25T14:51:37.435Z,90.06
2023-03-25T14:54:41.547Z,92.60
2023-03-25T14:57:44.456Z,93.75
2023-03-25T15:00:55.221Z,87.27
2023-03-25T15:04:29.556Z,85.19
2023-03-25T15:07:39.583Z,83.79
2023-03-25T15:10:43.301Z,83.98
2023-03-25T15:13:53.043Z,83.72
2023-03-25T15:16:57.178Z,82.56
2023-03-25T15:19:59.137Z,81.60
2023-03-25T15:23:19.583Z,80.79
2023-03-25T15:26:24.329Z,80.64
2023-03-25T15:29:29.060Z,80.76
2023-03-25T15:32:47.350Z,79.95
2023-03-25T15:36:02.273Z,79.13
2023-03-25T15:39:06.129Z,78.64
2023-03-25T15:42:10.987Z,78.74
2023-03-25T15:45:31.481Z,78.03
2023-03-25T15:48:53.694Z,78.03
2023-03-25T15:52:13.712Z,77.36
2023-03-25T15:55:19.592Z,76.38
2023-03-25T15:58:25.754Z,77.13
2023-03-25T16:01:38.812Z,77.79
2023-03-25T16:04:46.787Z,77.91
2023-03-25T16:07:49.357Z,77.15
2023-03-25T16:10:51.540Z,77.38
2023-03-25T16:14:08.494Z,78.00
2023-03-25T16:17:12.608Z,77.69
2023-03-25T16:20:19.364Z,76.54
2023-03-25T16:23:23.324Z,77.22
2023-03-25T16:26:38.913Z,73.71
2023-03-25T16:29:47.836Z,73.85
2023-03-25T16:32:50.266Z,73.97
2023-03-25T16:36:04.967Z,74.12
2023-03-25T16:39:10.102Z,74.25
2023-03-25T16:42:21.256Z,75.49
2023-03-25T16:45:23.375Z,75.66
2023-03-25T16:48:33.675Z,74.83
2023-03-25T16:51:38.093Z,75.56
2023-03-25T16:54:47.193Z,75.10
2023-03-25T16:57:49.336Z,74.89
2023-03-25T17:00:53.597Z,75.83
2023-03-25T17:04:08.017Z,75.30
2023-03-25T17:07:14.599Z,75.32
2023-03-25T17:10:22.143Z,77.45
2023-03-25T17:13:29.910Z,78.77
2023-03-25T17:16:32.863Z,77.25
2023-03-25T17:19:39.084Z,76.69
2023-03-25T17:22:41.084Z,75.61
2023-03-25T17:25:59.479Z,74.91
2023-03-25T17:29:06.410Z,74.23
2023-03-25T17:32:17.108Z,73.48
2023-03-25T17:35:27.702Z,73.02
2023-03-25T17:38:34.070Z,71.82
2023-03-25T17:41:37.777Z,72.20
2023-03-25T17:44:41.327Z,73.29
2023-03-25T17:47:43.415Z,73.26
2023-03-25T17:50:52.817Z,71.82
2023-03-25T17:53:54.920Z,72.79
2023-03-25T17:56:59.002Z,72.54
2023-03-25T18:00:01.066Z,78.21
2023-03-25T18:03:19.115Z,79.50
2023-03-25T18:06:21.677Z,82.30
2023-03-25T18:09:24.590Z,85.38
2023-03-25T18:12:27.229Z,90.59
2023-03-25T18:15:29.308Z,96.72
2023-03-25T18:18:32.112Z,97.51
2023-03-25T18:21:34.236Z,98.35
2023-03-25T18:24:36.375Z,100.00
2023-03-25T18:27:43.828Z,100.00
2023-03-25T18:30:51.014Z,100.00
2023-03-25T18:33:54.302Z,100.00
2023-03-25T18:36:56.489Z,100.00
2023-03-25T18:39:58.743Z,95.40
2023-03-25T18:43:00.806Z,91.89
2023-03-25T18:46:04.416Z,92.86
2023-03-25T18:49:16.917Z,93.62
2023-03-25T18:52:18.788Z,93.37
2023-03-25T18:55:20.754Z,92.69
2023-03-25T18:58:23.925Z,90.77
2023-03-25T19:01:26.798Z,88.58
2023-03-25T19:04:29.709Z,86.72
2023-03-25T19:07:31.614Z,87.27
2023-03-25T19:10:34.606Z,86.96
2023-03-25T19:13:37.017Z,85.74
2023-03-25T19:16:39.056Z,85.85
2023-03-25T19:19:41.392Z,84.96
2023-03-25T19:22:43.550Z,85.35
2023-03-25T19:25:46.672Z,84.94
2023-03-25T19:28:48.774Z,84.28
2023-03-25T19:31:50.882Z,84.05
2023-03-25T19:34:56.709Z,82.75
2023-03-25T19:37:58.770Z,83.24
2023-03-25T19:41:06.440Z,82.86
2023-03-25T19:44:10.566Z,82.51
2023-03-25T19:47:12.997Z,81.45
2023-03-25T19:50:17.694Z,81.99
2023-03-25T19:53:19.764Z,82.28
2023-03-25T19:56:22.076Z,81.58
2023-03-25T19:59:24.041Z,82.33
2023-03-25T20:02:26.282Z,81.91
2023-03-25T20:05:31.769Z,80.50
2023-03-25T20:08:34.512Z,80.74
2023-03-25T20:11:36.531Z,81.56
2023-03-25T20:15:51.648Z,82.76
2023-03-25T20:19:06.350Z,81.17
2023-03-25T20:22:24.261Z,81.96
2023-03-25T20:25:26.786Z,81.29
2023-03-25T20:28:32.112Z,81.46
2023-03-25T20:31:34.382Z,82.20
2023-03-25T20:34:38.259Z,82.22
2023-03-25T20:37:41.316Z,82.87
2023-03-25T20:40:45.241Z,82.05
2023-03-25T20:43:47.296Z,82.72
2023-03-25T20:46:50.560Z,82.72
2023-03-25T20:49:52.692Z,83.65
2023-03-25T20:52:54.728Z,83.75
2023-03-25T20:55:57.146Z,84.01
2023-03-25T20:58:59.100Z,83.66
2023-03-25T21:02:01.177Z,83.81
2023-03-25T21:05:03.736Z,83.75
2023-03-25T21:08:06.336Z,83.32
2023-03-25T21:11:08.336Z,83.49
2023-03-25T21:14:11.747Z,83.46
2023-03-25T21:17:13.693Z,82.69
2023-03-25T21:20:15.727Z,82.19
2023-03-25T21:23:20.366Z,82.37
2023-03-25T21:26:22.995Z,81.48
2023-03-25T21:29:24.936Z,81.90
2023-03-25T21:32:27.089Z,82.07
2023-03-25T21:35:29.436Z,82.00
2023-03-25T21:38:31.573Z,82.01
2023-03-25T21:41:34.069Z,82.37
2023-03-25T21:44:35.919Z,82.25
2023-03-25T21:47:38.035Z,82.91
2023-03-25T21:50:40.127Z,83.02
2023-03-25T21:53:46.505Z,83.42
2023-03-25T21:56:52.095Z,82.90
2023-03-25T21:59:55.373Z,82.88
2023-03-25T22:02:58.721Z,82.84
2023-03-25T22:06:08.427Z,82.73
2023-03-25T22:09:10.394Z,82.45
2023-03-25T22:12:12.308Z,82.33
2023-03-25T22:15:14.189Z,82.51
2023-03-25T22:18:16.087Z,82.55
2023-03-25T22:21:19.735Z,82.55
2023-03-25T22:24:21.696Z,82.51
2023-03-25T22:27:23.637Z,82.70
2023-03-25T22:30:25.494Z,83.33
2023-03-25T22:33:27.559Z,83.46
2023-03-25T22:36:31.000Z,83.61
2023-03-25T22:39:32.988Z,83.50
2023-03-25T22:42:38.792Z,83.74
2023-03-25T22:45:40.885Z,83.86
2023-03-25T22:48:42.949Z,83.88
2023-03-25T22:51:44.870Z,83.91
2023-03-25T22:54:46.861Z,86.25
2023-03-25T22:57:49.425Z,87.94
2023-03-25T23:00:51.595Z,87.95
2023-03-25T23:03:53.957Z,88.01
2023-03-25T23:07:05.027Z,87.30
2023-03-25T23:10:10.192Z,86.41
2023-03-25T23:13:12.154Z,85.31
2023-03-25T23:16:15.794Z,86.35
2023-03-25T23:19:17.806Z,88.05
2023-03-25T23:22:20.063Z,88.14
2023-03-25T23:25:21.975Z,87.91
2023-03-25T23:28:27.029Z,87.88
2023-03-25T23:31:34.303Z,87.82
2023-03-25T23:34:36.793Z,88.16
2023-03-25T23:37:41.685Z,88.39
2023-03-25T23:40:43.602Z,88.28
2023-03-25T23:43:46.830Z,88.29
2023-03-25T23:46:51.294Z,87.14
2023-03-25T23:49:58.027Z,86.40
2023-03-25T23:53:01.679Z,86.67
2023-03-25T23:56:03.857Z,85.81
2023-03-25T23:59:06.797Z,86.52
